Kuujjuaq Airport, Quebec

Past 24 Hour Conditions

This table is a summary of hourly weather conditions for the past 24 hours. This summary includes the following parameters: temperature, humidity, dew point, wind speed and direction, air pressure, visibility and/or wind chill and humidex.
Date / Time
(EDT)
Conditions Temp (°C) Humidity (%) Dew Point (°C) Wind (km/h) Pressure (kPa) Vis (km) Wind Chill
20 April 2014
11:00 Mainly Sunny -5   51 -14 W 23 gust 34 102.3 24 -12
10:00 Mainly Sunny -7 53 -15 W 26 gust 40 102.4 24 -15
9:00 Sunny -9 56 -16 W 23 gust 35 102.4 24 -17
8:00 Mainly Sunny -10 60 -17 WSW 19 102.4 24 -18
7:00 Mainly Sunny -12 64 -17 SW 13 102.4 24 -18
6:00 Mainly Sunny -13 70 -18 WSW 16 102.4 24 -21
5:00 Mainly Clear -14   74 -17 WSW 10 102.4 24 -19
4:00 Partly Cloudy -13 73 -17 WSW 13 102.4 24 -19
3:00 Partly Cloudy -12 71 -16 WSW 17 102.4 24 -19
2:00 Cloudy -10 70 -15 S 9 102.4 24 -15
1:00 Cloudy -9 67 -15 W 11 102.4 24 -15
00:00 Mostly Cloudy -9 67 -14 W 11 gust 37 102.4 24 -15
19 April 2014
23:00 Partly Cloudy -10 67 -15 W 19 gust 30 102.4 24 -17
22:00 Partly Cloudy -10 67 -15 W 23 gust 36 102.4 24 -18
21:00 Mostly Cloudy -10 66 -15 W 35 gust 52 102.3 24 -20
20:00 Cloudy -9 64 -15 W 31 gust 44 102.4 24 -18
19:00 Drifting Snow -8 61 -15 WSW 32 gust 54 102.4 24 -17
18:00 Cloudy -8 57 -15 W 30 gust 53 102.4 24 -16
17:00 Mostly Cloudy -8 55 -15 W 42 gust 57 102.4 24 -18
16:00 Mostly Cloudy -7 49 -16 W 28 gust 42 102.4 24 -15
15:00 Partly Cloudy -7 46 -17 WSW 31 gust 46 102.5 24 -15
14:00 Partly Cloudy -7 43 -18 W 34 gust 48 102.5 24 -16
13:00 Partly Cloudy -8 47 -17 W 26 gust 45 102.5 24 -16
12:00 Mostly Cloudy -8 48 -18 WSW 27 gust 44 102.5 24 -17
11:00 Mainly Sunny -9 51 -18 W 15 gust 30 102.6 24 -16
N/A
Not available
 ↑ 
Highest temperature
 ↓ 
Lowest temperature
*
Value not significant.

If you require additional historical weather information, please visit Climate Data Online.